Time;durP1;ratioP1;P1;durP2;ratioP2;P2;SDS_P1;SDS_P2;PMS_P1;PMS_P2;Temp;Humidity;BMP_temperature;BMP_pressure;BME280_temperature;BME280_humidity;BME280_pressure;Samples;Min_cycle;Max_cycle;Signal;HPM_P1;HPM_P2
2023/06/21 00:01:35;;;;;;;12.53;11.33;;;;;;;20.42;100.00;97975.66;5054253;28;20204;-75
2023/06/21 00:04:01;;;;;;;13.53;12.13;;;;;;;20.45;100.00;97975.34;5053836;28;20207;-75
2023/06/21 00:06:29;;;;;;;14.10;12.63;;;;;;;20.42;100.00;97974.84;5054286;28;20200;-75
2023/06/21 00:08:56;;;;;;;13.77;12.07;;;;;;;20.45;100.00;97974.50;5053875;28;20278;-75
2023/06/21 00:11:24;;;;;;;14.37;12.87;;;;;;;20.43;100.00;97971.97;5053574;28;20204;-75
2023/06/21 00:13:52;;;;;;;13.63;12.07;;;;;;;20.43;100.00;97958.53;5053763;28;20216;-75
2023/06/21 00:16:19;;;;;;;12.70;11.20;;;;;;;20.41;100.00;97960.56;5053537;28;20223;-75
2023/06/21 00:18:45;;;;;;;12.67;11.37;;;;;;;20.43;100.00;97944.31;5053468;28;20231;-75
2023/06/21 00:21:12;;;;;;;15.83;12.60;;;;;;;20.40;100.00;97953.53;5053471;28;20583;-75
2023/06/21 00:23:39;;;;;;;13.33;11.93;;;;;;;20.43;100.00;97949.66;5053442;28;20274;-75
2023/06/21 00:26:05;;;;;;;15.60;12.97;;;;;;;20.42;100.00;97943.44;5053474;28;20208;-75
2023/06/21 00:28:33;;;;;;;12.77;11.47;;;;;;;20.41;100.00;97944.47;5053332;28;20228;-75
2023/06/21 00:30:59;;;;;;;13.77;11.80;;;;;;;20.38;100.00;97955.56;5053479;28;20675;-75
2023/06/21 00:33:26;;;;;;;13.93;11.53;;;;;;;20.30;100.00;97950.19;5053557;28;20208;-75
2023/06/21 00:35:53;;;;;;;13.00;11.70;;;;;;;20.26;100.00;97959.59;5053186;28;20212;-76
2023/06/21 00:38:20;;;;;;;13.20;11.20;;;;;;;20.17;100.00;97965.97;5053307;28;20247;-75
2023/06/21 00:40:49;;;;;;;13.13;11.80;;;;;;;20.13;100.00;97964.66;5053027;28;20219;-75
2023/06/21 00:43:16;;;;;;;12.10;11.00;;;;;;;20.05;100.00;97964.63;5053209;28;20231;-75
2023/06/21 00:45:45;;;;;;;12.73;11.33;;;;;;;19.98;100.00;97963.63;5053069;28;20637;-75
2023/06/21 00:48:12;;;;;;;13.03;11.77;;;;;;;19.95;100.00;97960.44;5053067;28;20220;-75
2023/06/21 00:50:39;;;;;;;13.73;12.33;;;;;;;19.93;100.00;97960.59;5053031;28;20808;-75
2023/06/21 00:53:05;;;;;;;12.93;11.63;;;;;;;19.95;100.00;97955.91;5052768;28;20209;-75
2023/06/21 00:55:33;;;;;;;14.10;12.30;;;;;;;19.98;100.00;97965.44;5052889;28;20318;-75
2023/06/21 00:58:00;;;;;;;14.70;13.20;;;;;;;20.00;100.00;97964.28;5052591;28;20725;-75
2023/06/21 01:00:26;;;;;;;15.40;12.57;;;;;;;20.01;100.00;97965.97;5049641;28;20578;-75
2023/06/21 01:02:56;;;;;;;14.00;12.57;;;;;;;19.99;100.00;97962.59;5050164;28;20478;-75
2023/06/21 01:05:25;;;;;;;13.57;12.27;;;;;;;19.99;100.00;97962.59;5050031;28;20208;-75
2023/06/21 01:08:00;;;;;;;14.43;13.00;;;;;;;19.97;100.00;97972.69;5050716;28;20635;-75
2023/06/21 01:10:38;;;;;;;14.47;12.53;;;;;;;19.97;100.00;97975.34;5052338;28;20207;-76
2023/06/21 01:13:15;;;;;;;13.97;12.57;;;;;;;19.94;100.00;97973.00;5052897;28;20212;-75
2023/06/21 01:15:45;;;;;;;15.63;12.90;;;;;;;19.95;100.00;97987.25;5052586;28;20238;-75
2023/06/21 01:18:16;;;;;;;14.57;12.87;;;;;;;19.89;100.00;97975.38;5052448;28;20243;-75
2023/06/21 01:20:48;;;;;;;14.13;12.73;;;;;;;19.82;100.00;97982.38;5052256;28;20247;-75
2023/06/21 01:23:32;;;;;;;15.17;13.17;;;;;;;19.80;100.00;97979.03;5052495;28;20215;-75
2023/06/21 01:26:12;;;;;;;17.43;13.70;;;;;;;19.83;100.00;97978.72;5052564;28;20208;-75
2023/06/21 01:28:47;;;;;;;15.23;13.63;;;;;;;19.83;100.00;97983.22;5052344;28;20220;-75
2023/06/21 01:31:16;;;;;;;15.27;13.73;;;;;;;19.82;100.00;97987.75;5052005;28;20211;-75
2023/06/21 01:33:43;;;;;;;16.37;14.67;;;;;;;19.85;100.00;97998.16;5052190;28;20207;-75
2023/06/21 01:36:10;;;;;;;16.60;14.00;;;;;;;19.90;100.00;97982.41;5052355;28;20204;-74
2023/06/21 01:38:37;;;;;;;16.83;14.30;;;;;;;19.95;100.00;97988.13;5052109;28;20243;-75
2023/06/21 01:41:04;;;;;;;14.90;13.30;;;;;;;20.00;100.00;97980.38;5051864;28;20586;-75
2023/06/21 01:43:31;;;;;;;15.37;13.77;;;;;;;20.06;100.00;97990.47;5052132;28;20713;-75
2023/06/21 01:46:01;;;;;;;14.93;13.20;;;;;;;20.04;100.00;97996.97;5051956;28;20583;-75
2023/06/21 01:48:31;;;;;;;14.67;12.80;;;;;;;20.03;100.00;97998.84;5052008;28;20271;-75
2023/06/21 01:50:59;;;;;;;14.37;12.87;;;;;;;19.94;100.00;98005.19;5051816;28;20298;-75
2023/06/21 01:53:25;;;;;;;14.53;13.00;;;;;;;19.86;100.00;98005.19;5052114;28;20219;-75
2023/06/21 01:55:57;;;;;;;13.97;12.57;;;;;;;19.82;100.00;98009.19;5051767;28;20675;-75
2023/06/21 01:58:23;;;;;;;14.40;12.80;;;;;;;19.79;100.00;98017.59;5051701;28;20227;-75
2023/06/21 02:00:50;;;;;;;13.37;12.07;;;;;;;19.76;100.00;98020.59;5051714;28;20281;-75
2023/06/21 02:03:19;;;;;;;14.23;12.80;;;;;;;19.80;100.00;98027.31;5051112;28;20219;-75
2023/06/21 02:05:48;;;;;;;14.90;13.40;;;;;;;19.77;100.00;98019.63;5051645;28;20212;-75
2023/06/21 02:08:16;;;;;;;16.17;14.07;;;;;;;19.72;100.00;98023.78;5051601;28;20242;-75
2023/06/21 02:10:44;;;;;;;14.93;13.43;;;;;;;19.71;100.00;98032.84;5051264;28;20211;-75
2023/06/21 02:13:12;;;;;;;15.63;12.87;;;;;;;19.74;100.00;98033.34;5052309;28;20307;-74
2023/06/21 02:15:40;;;;;;;13.13;11.93;;;;;;;19.76;100.00;98042.03;5051709;28;20211;-75
2023/06/21 02:18:07;;;;;;;15.10;11.77;;;;;;;19.71;100.00;98043.56;5051459;28;20232;-75
2023/06/21 02:20:34;;;;;;;14.80;12.43;;;;;;;19.72;100.00;98056.81;5051464;28;20674;-75
2023/06/21 02:23:02;;;;;;;12.57;11.37;;;;;;;19.64;100.00;98054.09;5051376;28;20211;-75
2023/06/21 02:25:29;;;;;;;12.97;11.50;;;;;;;19.62;100.00;98056.09;5051278;28;20583;-74
2023/06/21 02:27:55;;;;;;;13.30;12.00;;;;;;;19.58;100.00;98060.09;5051431;28;20219;-75
2023/06/21 02:30:22;;;;;;;13.10;11.70;;;;;;;19.58;100.00;98062.78;5051191;28;20231;-75
2023/06/21 02:32:48;;;;;;;12.27;10.97;;;;;;;19.51;100.00;98056.41;5051372;28;20219;-75
2023/06/21 02:35:15;;;;;;;14.30;11.53;;;;;;;19.39;100.00;98056.88;5051326;28;20388;-75
2023/06/21 02:37:41;;;;;;;12.67;11.37;;;;;;;19.30;100.00;98056.03;5051101;28;20231;-75
2023/06/21 02:40:13;;;;;;;14.50;12.00;;;;;;;19.19;100.00;98045.56;5051213;28;20228;-75
2023/06/21 02:42:40;;;;;;;13.17;11.63;;;;;;;19.09;100.00;98047.50;5051478;28;20611;-75
2023/06/21 02:45:09;;;;;;;13.07;11.67;;;;;;;19.05;100.00;98056.03;5051513;28;20569;-75
2023/06/21 02:47:35;;;;;;;13.07;11.70;;;;;;;19.06;100.00;98050.53;5051190;28;20244;-74
2023/06/21 02:50:03;;;;;;;13.93;12.53;;;;;;;19.11;100.00;98045.53;5050531;28;20758;-74
2023/06/21 02:52:29;;;;;;;13.63;12.33;;;;;;;19.14;100.00;98039.84;5051028;28;20237;-75
2023/06/21 02:54:56;;;;;;;13.47;12.07;;;;;;;19.19;100.00;98048.22;5051122;28;20215;-75
2023/06/21 02:57:24;;;;;;;13.73;12.37;;;;;;;19.20;100.00;98049.09;5051089;28;20214;-75
2023/06/21 02:59:51;;;;;;;14.23;12.20;;;;;;;19.18;100.00;98051.91;5050607;28;20232;-74
2023/06/21 03:02:17;;;;;;;13.43;12.07;;;;;;;19.15;100.00;98049.53;5050979;28;20204;-75
2023/06/21 03:04:44;;;;;;;15.07;13.27;;;;;;;19.15;100.00;98059.44;5050959;28;20215;-75
2023/06/21 03:07:10;;;;;;;14.63;13.13;;;;;;;19.16;100.00;98064.66;5050728;28;20219;-75
2023/06/21 03:09:37;;;;;;;15.17;13.57;;;;;;;19.14;100.00;98069.31;5050630;28;20231;-75
2023/06/21 03:12:07;;;;;;;17.40;14.27;;;;;;;19.14;100.00;98077.34;5050933;28;20208;-75
2023/06/21 03:14:37;;;;;;;15.67;14.17;;;;;;;19.14;100.00;98071.97;5051508;28;20621;-75
2023/06/21 03:17:04;;;;;;;16.73;14.97;;;;;;;19.18;100.00;98070.66;5054788;28;20204;-75
2023/06/21 03:19:30;;;;;;;16.13;14.47;;;;;;;19.25;100.00;98074.41;5054311;28;20266;-75
2023/06/21 03:21:57;;;;;;;16.63;14.23;;;;;;;19.35;100.00;98085.84;5054648;28;20347;-75
2023/06/21 03:24:23;;;;;;;17.47;14.93;;;;;;;19.37;100.00;98089.22;5054839;28;20227;-75
2023/06/21 03:26:50;;;;;;;16.33;14.63;;;;;;;19.40;100.00;98096.09;5054723;28;20228;-75
2023/06/21 03:29:16;;;;;;;16.70;14.77;;;;;;;19.43;100.00;98098.44;5054318;28;20589;-74
2023/06/21 03:31:44;;;;;;;16.00;14.13;;;;;;;19.46;100.00;98112.38;5054618;28;20212;-74
2023/06/21 03:34:11;;;;;;;17.17;15.47;;;;;;;19.48;100.00;98113.03;5054423;28;20219;-75
2023/06/21 03:36:37;;;;;;;16.00;14.30;;;;;;;19.55;100.00;98116.75;5054412;28;20219;-75
2023/06/21 03:39:04;;;;;;;16.60;14.47;;;;;;;19.67;100.00;98128.00;5054320;28;20257;-75
2023/06/21 03:41:30;;;;;;;15.87;14.13;;;;;;;19.72;100.00;98134.59;5054396;28;20208;-75
2023/06/21 03:43:57;;;;;;;14.60;13.07;;;;;;;19.85;100.00;98151.06;5054307;28;20223;-75
2023/06/21 03:46:23;;;;;;;15.33;13.07;;;;;;;19.94;100.00;98190.28;5054328;28;20208;-75
2023/06/21 03:48:53;;;;;;;15.93;12.77;;;;;;;20.02;100.00;98265.47;5054047;28;20236;-75
2023/06/21 03:51:20;;;;;;;15.13;13.10;;;;;;;20.12;100.00;98289.53;5054071;28;20261;-75
2023/06/21 03:53:46;;;;;;;17.40;13.17;;;;;;;20.05;100.00;98265.13;5054344;28;20655;-75
2023/06/21 03:56:13;;;;;;;14.70;11.90;;;;;;;19.84;100.00;98280.81;5054301;28;20208;-74
2023/06/21 03:58:41;;;;;;;13.77;11.50;;;;;;;19.55;100.00;98253.50;5053942;28;20243;-74
2023/06/21 04:01:08;;;;;;;14.30;10.53;;;;;;;19.25;100.00;98256.66;5054446;28;20212;-74
2023/06/21 04:03:34;;;;;;;15.30;11.23;;;;;;;19.09;100.00;98237.72;5054039;28;20708;-74
2023/06/21 04:06:02;;;;;;;12.90;10.10;;;;;;;18.93;100.00;98223.38;5054042;28;20226;-74
2023/06/21 04:08:29;;;;;;;13.93;10.93;;;;;;;18.79;100.00;98222.13;5053786;28;20782;-74
2023/06/21 04:10:56;;;;;;;12.97;10.60;;;;;;;18.70;100.00;98206.97;5053646;28;20223;-74
2023/06/21 04:13:22;;;;;;;13.40;10.87;;;;;;;18.67;100.00;98201.94;5054483;28;20273;-74
2023/06/21 04:15:49;;;;;;;14.07;11.20;;;;;;;18.67;100.00;98180.50;5053956;28;20217;-74
2023/06/21 04:18:15;;;;;;;12.70;10.97;;;;;;;18.61;100.00;98185.63;5053518;28;20243;-74
2023/06/21 04:20:42;;;;;;;12.53;11.10;;;;;;;18.60;100.00;98179.41;5053428;28;20305;-74
2023/06/21 04:23:10;;;;;;;12.67;11.37;;;;;;;18.65;100.00;98177.13;5053669;28;20219;-74
2023/06/21 04:25:36;;;;;;;14.13;11.07;;;;;;;18.62;100.00;98172.09;5053437;28;20678;-74
2023/06/21 04:28:03;;;;;;;14.60;10.87;;;;;;;18.66;100.00;98177.97;5052731;28;20203;-74
2023/06/21 04:30:33;;;;;;;14.07;11.40;;;;;;;18.62;100.00;98174.78;5053051;28;20219;-74
2023/06/21 04:32:59;;;;;;;18.47;11.97;;;;;;;18.64;100.00;98163.88;5053480;28;20216;-74
2023/06/21 04:35:26;;;;;;;13.97;11.50;;;;;;;18.58;100.00;98170.72;5053496;28;20228;-74
2023/06/21 04:37:52;;;;;;;12.63;11.13;;;;;;;18.57;100.00;98166.34;5052869;28;20204;-75
2023/06/21 04:40:22;;;;;;;13.23;11.70;;;;;;;18.62;100.00;98166.75;5052965;28;20232;-75
2023/06/21 04:42:54;;;;;;;13.80;11.37;;;;;;;18.71;100.00;98154.25;5053185;28;20215;-75
2023/06/21 04:45:21;;;;;;;13.47;11.70;;;;;;;18.79;100.00;98168.56;5053461;28;20208;-74
2023/06/21 04:47:48;;;;;;;12.37;11.03;;;;;;;18.85;100.00;98151.88;5053315;28;20580;-74
2023/06/21 04:50:15;;;;;;;13.17;11.87;;;;;;;18.89;100.00;98163.09;5052586;28;20238;-75
2023/06/21 04:52:48;;;;;;;14.93;12.33;;;;;;;18.92;100.00;98162.78;5052997;28;20266;-76
2023/06/21 04:55:17;;;;;;;13.07;11.57;;;;;;;18.91;100.00;98172.63;5052964;28;20227;-75
2023/06/21 04:57:46;;;;;;;13.87;11.57;;;;;;;18.90;100.00;98170.94;5052642;28;20204;-76
2023/06/21 05:00:14;;;;;;;14.57;12.07;;;;;;;18.93;100.00;98186.72;5052361;28;20246;-76
2023/06/21 05:02:40;;;;;;;15.17;12.40;;;;;;;19.00;100.00;98181.56;5052930;28;20207;-75
2023/06/21 05:05:07;;;;;;;13.37;11.97;;;;;;;19.04;100.00;98178.44;5052824;28;20218;-75
2023/06/21 05:07:36;;;;;;;12.73;10.90;;;;;;;19.13;100.00;98182.84;5052697;28;20227;-76
2023/06/21 05:10:04;;;;;;;15.97;12.40;;;;;;;19.25;100.00;98168.22;5052047;28;20224;-75
2023/06/21 05:12:30;;;;;;;14.53;12.03;;;;;;;19.31;100.00;98175.63;5052575;28;20218;-75
2023/06/21 05:14:58;;;;;;;12.27;10.97;;;;;;;19.35;100.00;98176.97;5052404;28;20204;-76
2023/06/21 05:17:24;;;;;;;14.23;12.17;;;;;;;19.39;100.00;98188.22;5052482;28;20299;-76
2023/06/21 05:19:51;;;;;;;15.17;11.83;;;;;;;19.37;100.00;98193.75;5051991;28;20236;-75
2023/06/21 05:22:17;;;;;;;14.80;13.27;;;;;;;19.39;100.00;98189.03;5052450;28;20223;-75
2023/06/21 05:24:44;;;;;;;14.53;12.40;;;;;;;19.38;100.00;98182.00;5052153;28;20215;-75
2023/06/21 05:27:12;;;;;;;13.60;12.03;;;;;;;19.38;100.00;98182.00;5052419;28;20212;-76
2023/06/21 05:29:38;;;;;;;14.80;12.63;;;;;;;19.39;100.00;98180.19;5051826;28;20234;-76
2023/06/21 05:32:07;;;;;;;13.33;11.93;;;;;;;19.37;100.00;98172.28;5051890;28;20208;-76
2023/06/21 05:34:33;;;;;;;16.90;13.70;;;;;;;19.40;100.00;98174.66;5052160;28;20217;-75
2023/06/21 05:37:00;;;;;;;13.80;12.00;;;;;;;19.41;100.00;98181.72;5052107;28;20208;-76
2023/06/21 05:39:26;;;;;;;13.90;12.40;;;;;;;19.38;100.00;98179.34;5050418;28;20236;-75
2023/06/21 05:41:53;;;;;;;13.50;12.20;;;;;;;19.42;100.00;98187.91;5052001;28;20674;-76
2023/06/21 05:44:19;;;;;;;14.63;12.97;;;;;;;19.45;100.00;98191.09;5052101;28;20386;-75
2023/06/21 05:46:46;;;;;;;14.03;12.43;;;;;;;19.51;100.00;98192.31;5051990;28;20211;-76
2023/06/21 05:49:14;;;;;;;16.80;12.37;;;;;;;19.56;100.00;98193.50;5051302;28;20710;-76
2023/06/21 05:51:40;;;;;;;14.60;12.60;;;;;;;19.73;100.00;98192.56;5051879;28;20219;-76
2023/06/21 05:54:07;;;;;;;12.83;11.53;;;;;;;19.87;100.00;98183.09;5051728;28;20208;-76
2023/06/21 05:56:37;;;;;;;14.47;11.43;;;;;;;20.00;100.00;98189.66;5052007;28;20215;-76
2023/06/21 05:59:03;;;;;;;12.57;11.37;;;;;;;20.09;100.00;98183.34;5051491;28;20267;-75
2023/06/21 06:01:30;;;;;;;14.37;11.30;;;;;;;20.15;100.00;98182.69;5051470;28;20226;-76
2023/06/21 06:03:56;;;;;;;11.83;10.63;;;;;;;20.18;100.00;98184.22;5051591;28;20673;-75
2023/06/21 06:06:34;;;;;;;12.23;10.87;;;;;;;20.22;100.00;98167.59;5051498;28;20212;-75
2023/06/21 06:09:01;;;;;;;15.60;12.17;;;;;;;20.37;100.00;98176.66;5051659;28;20230;-76
2023/06/21 06:11:27;;;;;;;13.23;11.80;;;;;;;20.43;100.00;98184.06;5051398;28;20215;-75
2023/06/21 06:13:53;;;;;;;15.47;12.10;;;;;;;20.79;100.00;98193.50;5051708;28;20211;-76
2023/06/21 06:16:20;;;;;;;13.77;11.03;;;;;;;21.40;100.00;98193.78;5051221;28;20204;-76
2023/06/21 06:18:46;;;;;;;13.07;11.70;;;;;;;21.96;100.00;98190.94;5050989;28;20232;-76
2023/06/21 06:21:14;;;;;;;11.67;10.27;;;;;;;22.36;100.00;98206.88;5051394;28;20211;-76
2023/06/21 06:23:42;;;;;;;10.90;9.73;;;;;;;22.43;100.00;98220.50;5051606;28;20290;-76
2023/06/21 06:26:08;;;;;;;11.90;10.43;;;;;;;22.50;100.00;98227.69;5051383;28;20205;-76
2023/06/21 06:28:35;;;;;;;10.67;9.33;;;;;;;22.57;100.00;98223.28;5051171;28;20228;-76
2023/06/21 06:31:01;;;;;;;10.97;9.13;;;;;;;22.71;100.00;98224.34;5051022;28;20626;-75
2023/06/21 06:33:28;;;;;;;12.27;10.47;;;;;;;22.77;100.00;98224.47;5051103;28;20212;-77
2023/06/21 06:35:54;;;;;;;10.73;9.20;;;;;;;22.72;100.00;98229.56;5048929;28;20219;-76
2023/06/21 06:38:21;;;;;;;10.50;9.40;;;;;;;22.69;100.00;98229.94;5049696;28;20267;-76
2023/06/21 06:40:49;;;;;;;10.33;9.23;;;;;;;22.68;100.00;98230.91;5049511;28;20239;-76
2023/06/21 06:43:15;;;;;;;12.40;9.20;;;;;;;22.80;100.00;98226.78;5049938;28;20713;-76
2023/06/21 06:45:42;;;;;;;11.23;9.60;;;;;;;22.91;100.00;98244.44;5049659;28;20212;-77
2023/06/21 06:48:08;;;;;;;9.67;8.73;;;;;;;23.01;100.00;98256.63;5049831;28;20212;-77
2023/06/21 06:50:36;;;;;;;11.67;9.27;;;;;;;23.05;100.00;98255.22;5049636;28;20295;-76
2023/06/21 06:53:04;;;;;;;9.65;8.75;;;;;;;23.14;100.00;98266.78;5049560;28;20807;-76
2023/06/21 06:55:31;;;;;;;11.03;8.20;;;;;;;23.30;100.00;98262.16;5051000;28;20204;-77
2023/06/21 06:57:59;;;;;;;10.70;8.70;;;;;;;23.45;100.00;98263.00;5050942;28;20593;-77
2023/06/21 07:00:25;;;;;;;10.83;8.20;;;;;;;23.85;100.00;98259.06;5050330;28;20236;-77
2023/06/21 07:02:56;;;;;;;10.40;8.87;;;;;;;24.41;100.00;98255.69;5051121;28;20211;-77
2023/06/21 07:05:23;;;;;;;10.63;8.20;;;;;;;24.88;100.00;98254.16;5051144;28;20262;-77
2023/06/21 07:07:49;;;;;;;9.27;7.63;;;;;;;24.92;100.00;98260.06;5051206;28;20282;-77
2023/06/21 07:10:16;;;;;;;9.53;8.50;;;;;;;25.04;100.00;98256.63;5050465;28;20230;-77
2023/06/21 07:12:42;;;;;;;9.83;8.30;;;;;;;25.11;100.00;98254.00;5050834;28;20212;-78
2023/06/21 07:15:11;;;;;;;9.63;8.63;;;;;;;24.95;92.42;98260.50;5050803;28;20212;-77
2023/06/21 07:17:37;;;;;;;9.30;8.33;;;;;;;24.79;95.36;98263.44;5051077;28;20211;-77
2023/06/21 07:20:06;;;;;;;9.50;8.40;;;;;;;24.66;97.70;98259.75;5050732;28;20254;-77
2023/06/21 07:22:32;;;;;;;9.60;8.13;;;;;;;24.64;100.00;98251.00;5050939;28;20216;-77
2023/06/21 07:24:59;;;;;;;8.20;7.40;;;;;;;24.71;100.00;98252.75;5050953;28;20227;-77
2023/06/21 07:27:26;;;;;;;10.67;9.30;;;;;;;24.78;99.37;98237.44;5050706;28;20299;-76
2023/06/21 07:29:53;;;;;;;11.40;8.73;;;;;;;24.80;100.00;98246.19;5050248;28;20742;-76
2023/06/21 07:32:21;;;;;;;9.43;8.53;;;;;;;24.78;96.32;98247.41;5050718;28;20307;-76
2023/06/21 07:34:48;;;;;;;8.93;7.83;;;;;;;24.88;94.42;98253.34;5050933;28;20260;-76
2023/06/21 07:37:15;;;;;;;11.30;9.00;;;;;;;25.01;97.24;98251.63;5050782;28;20676;-74
2023/06/21 07:39:41;;;;;;;10.70;7.97;;;;;;;25.27;96.21;98245.63;5050305;28;20315;-76
2023/06/21 07:42:08;;;;;;;7.43;6.20;;;;;;;25.45;95.14;98252.25;5050531;28;20219;-77
2023/06/21 07:44:35;;;;;;;6.97;5.90;;;;;;;25.48;92.13;98246.41;5050737;28;20204;-76
2023/06/21 07:47:01;;;;;;;7.87;5.10;;;;;;;25.42;87.39;98236.38;5050526;28;20228;-76
2023/06/21 07:49:29;;;;;;;6.57;5.67;;;;;;;25.34;88.69;98247.34;5050048;28;20232;-75
2023/06/21 07:51:56;;;;;;;5.70;5.10;;;;;;;25.28;89.00;98247.28;5050484;28;20212;-77
2023/06/21 07:54:22;;;;;;;6.70;5.30;;;;;;;25.16;87.90;98246.09;5050564;28;20215;-76
2023/06/21 07:56:49;;;;;;;6.83;5.40;;;;;;;25.11;90.60;98248.59;5050274;28;20208;-77
2023/06/21 07:59:15;;;;;;;6.77;4.57;;;;;;;25.01;90.53;98243.50;5050451;28;20236;-76
2023/06/21 08:01:42;;;;;;;4.90;4.13;;;;;;;24.97;92.03;98249.47;5051097;28;20216;-76
2023/06/21 08:04:08;;;;;;;5.47;4.43;;;;;;;25.02;90.12;98239.75;5054251;28;20212;-76
2023/06/21 08:06:36;;;;;;;5.23;4.17;;;;;;;25.08;85.76;98239.00;5053825;28;20208;-77
2023/06/21 08:09:03;;;;;;;5.17;4.07;;;;;;;25.35;83.67;98245.50;5053783;28;20228;-77
2023/06/21 08:11:30;;;;;;;5.63;3.97;;;;;;;25.60;78.38;98236.72;5053522;28;20468;-77
2023/06/21 08:13:57;;;;;;;5.47;3.93;;;;;;;25.81;78.11;98244.81;5053987;28;20223;-76
2023/06/21 08:16:23;;;;;;;4.73;3.93;;;;;;;25.80;75.98;98251.25;5054193;28;20212;-82
2023/06/21 08:18:50;;;;;;;7.33;4.10;;;;;;;25.73;74.28;98257.66;5054080;28;20228;-79
2023/06/21 08:21:16;;;;;;;4.23;3.83;;;;;;;25.75;79.09;98269.97;5053263;28;20232;-81
2023/06/21 08:23:44;;;;;;;3.77;3.40;;;;;;;25.77;78.45;98273.31;5053612;28;20220;-76
2023/06/21 08:26:11;;;;;;;4.10;3.30;;;;;;;25.53;73.25;98252.09;5053730;28;20208;-76
2023/06/21 08:28:37;;;;;;;3.63;2.90;;;;;;;25.41;78.71;98272.59;5053619;28;20262;-76
2023/06/21 08:31:04;;;;;;;6.10;2.73;;;;;;;25.30;74.52;98262.31;5053307;28;20208;-76
2023/06/21 08:33:30;;;;;;;4.10;2.80;;;;;;;25.24;75.69;98271.19;5053098;28;20439;-78
2023/06/21 08:35:57;;;;;;;3.73;2.80;;;;;;;25.14;77.18;98297.72;5053325;28;20705;-77
2023/06/21 08:38:23;;;;;;;3.27;2.73;;;;;;;24.98;77.49;98297.97;5053067;28;20236;-77
2023/06/21 08:40:52;;;;;;;4.23;3.00;;;;;;;24.83;76.24;98299.91;5053043;28;20239;-76
2023/06/21 08:43:18;;;;;;;3.33;2.87;;;;;;;24.74;75.57;98298.31;5053436;28;20318;-77
2023/06/21 08:45:46;;;;;;;3.73;2.83;;;;;;;24.67;75.13;98293.84;5053320;28;20204;-76
2023/06/21 08:48:13;;;;;;;3.77;3.20;;;;;;;24.58;77.56;98298.56;5053196;28;20228;-76
2023/06/21 08:50:42;;;;;;;4.60;3.77;;;;;;;24.48;77.27;98311.50;5052975;28;20215;-77
2023/06/21 08:53:13;;;;;;;3.30;2.70;;;;;;;24.37;78.81;98309.25;5052936;28;20211;-78
2023/06/21 08:55:42;;;;;;;4.43;3.50;;;;;;;24.31;78.75;98320.81;5052985;28;20719;-78
2023/06/21 08:58:14;;;;;;;5.40;3.73;;;;;;;24.23;81.74;98334.44;5053046;28;20222;-78
2023/06/21 09:00:45;;;;;;;3.57;3.17;;;;;;;24.13;85.70;98344.66;5052532;28;20232;-78
2023/06/21 09:03:18;;;;;;;4.33;3.50;;;;;;;23.95;86.30;98338.78;5052792;28;20208;-78
2023/06/21 09:05:50;;;;;;;4.63;3.50;;;;;;;23.88;85.33;98337.00;5052836;28;20303;-78
2023/06/21 09:08:17;;;;;;;4.03;3.30;;;;;;;23.72;87.64;98340.66;5052921;28;20608;-77
2023/06/21 09:10:44;;;;;;;4.13;3.40;;;;;;;23.59;89.68;98351.25;5052502;28;20265;-77
2023/06/21 09:13:13;;;;;;;3.77;3.33;;;;;;;23.51;92.15;98342.38;5052545;28;20654;-79
2023/06/21 09:19:01;;;;;;;5.73;3.53;;;;;;;22.90;100.00;98348.69;5052545;28;20590;-79
2023/06/21 09:21:28;;;;;;;4.70;3.90;;;;;;;22.68;100.00;98349.47;5052306;28;20240;-78
2023/06/21 09:23:55;;;;;;;4.50;3.67;;;;;;;22.49;100.00;98339.16;5052493;28;20211;-78
2023/06/21 09:26:21;;;;;;;6.57;4.10;;;;;;;22.34;100.00;98338.19;5052657;28;20208;-79
2023/06/21 09:28:49;;;;;;;5.40;4.10;;;;;;;22.15;100.00;98330.50;5052174;28;20236;-78
2023/06/21 09:31:16;;;;;;;6.53;4.10;;;;;;;21.98;100.00;98298.41;5052259;28;20200;-72
2023/06/21 09:33:43;;;;;;;5.13;4.03;;;;;;;21.57;100.00;98305.72;5052538;28;20576;-76
2023/06/21 09:36:10;;;;;;;6.53;3.87;;;;;;;21.16;100.00;98320.16;5052247;28;20215;-73
2023/06/21 09:38:38;;;;;;;5.33;3.77;;;;;;;20.87;100.00;98319.78;5052255;28;20604;-76
2023/06/21 09:41:07;;;;;;;4.77;4.10;;;;;;;20.81;100.00;98325.81;5051499;28;20224;-76
2023/06/21 09:43:33;;;;;;;5.73;4.67;;;;;;;20.80;100.00;98318.75;5051819;28;20223;-77
2023/06/21 09:46:04;;;;;;;6.23;4.90;;;;;;;20.71;100.00;98309.00;5052224;28;20695;-77
2023/06/21 09:48:33;;;;;;;6.53;4.60;;;;;;;20.62;100.00;98291.19;5052070;28;20240;-77
2023/06/21 09:51:02;;;;;;;10.13;5.80;;;;;;;20.59;100.00;98261.97;5051695;28;20646;-77
2023/06/21 09:53:28;;;;;;;8.73;5.20;;;;;;;20.48;100.00;98248.84;5051872;28;20219;-76
2023/06/21 09:55:56;;;;;;;8.10;5.40;;;;;;;20.25;100.00;98241.59;5052098;28;20219;-77
2023/06/21 09:58:22;;;;;;;9.37;5.63;;;;;;;20.04;100.00;98250.03;5051609;28;20286;-76
2023/06/21 10:00:49;;;;;;;8.10;6.03;;;;;;;20.09;100.00;98258.47;5051521;28;20702;-77
2023/06/21 10:03:17;;;;;;;7.57;5.90;;;;;;;20.11;100.00;98261.84;5051762;28;20219;-76
2023/06/21 10:05:55;;;;;;;6.97;5.60;;;;;;;20.06;100.00;98258.78;5051634;28;20204;-76
2023/06/21 10:08:26;;;;;;;8.73;5.97;;;;;;;20.04;100.00;98271.50;5051437;28;20262;-76
2023/06/21 10:10:53;;;;;;;7.83;6.17;;;;;;;20.02;100.00;98288.75;5051422;28;20204;-77
2023/06/21 10:13:25;;;;;;;9.20;6.33;;;;;;;20.05;100.00;98310.75;5051614;28;20210;-76
2023/06/21 10:15:52;;;;;;;9.63;6.50;;;;;;;20.11;100.00;98326.25;5051487;28;20204;-77
2023/06/21 10:18:21;;;;;;;8.43;6.93;;;;;;;20.17;100.00;98325.59;5051443;28;20305;-76
2023/06/21 10:20:52;;;;;;;8.97;6.57;;;;;;;20.23;100.00;98321.44;5051311;28;20246;-76
2023/06/21 10:23:21;;;;;;;8.90;6.73;;;;;;;20.25;100.00;98319.44;5051802;28;20635;-76
2023/06/21 10:25:51;;;;;;;9.07;6.33;;;;;;;20.23;100.00;98313.41;5051044;28;20211;-77
2023/06/21 10:28:19;;;;;;;8.40;6.17;;;;;;;20.16;100.00;98315.88;5051146;28;20232;-76
2023/06/21 10:30:47;;;;;;;9.60;6.27;;;;;;;20.17;100.00;98320.22;5050916;28;20628;-77
2023/06/21 10:33:16;;;;;;;9.00;6.77;;;;;;;20.17;100.00;98330.97;5051054;28;20212;-76
2023/06/21 10:35:48;;;;;;;9.73;6.87;;;;;;;20.16;100.00;98334.66;5051396;28;20265;-76
2023/06/21 10:38:22;;;;;;;8.40;5.97;;;;;;;20.23;100.00;98337.56;5051101;28;20294;-76
2023/06/21 10:40:50;;;;;;;8.10;6.03;;;;;;;20.30;100.00;98326.00;5051004;28;20648;-76
2023/06/21 10:43:16;;;;;;;8.27;6.57;;;;;;;20.40;100.00;98326.72;5051022;28;20258;-77
2023/06/21 10:45:46;;;;;;;9.53;7.30;;;;;;;20.43;100.00;98338.97;5051436;28;20207;-76
2023/06/21 10:48:14;;;;;;;7.30;5.67;;;;;;;20.43;100.00;98337.09;5051101;28;20239;-76
2023/06/21 10:50:41;;;;;;;9.90;6.43;;;;;;;20.55;100.00;98338.50;5050895;28;20466;-77
2023/06/21 10:53:10;;;;;;;10.13;6.33;;;;;;;20.77;100.00;98335.22;5051208;28;20235;-76
2023/06/21 10:55:39;;;;;;;7.23;6.00;;;;;;;20.91;100.00;98348.03;5051009;28;20219;-76
2023/06/21 10:58:06;;;;;;;6.70;5.60;;;;;;;21.02;100.00;98350.41;5051317;28;20295;-77
2023/06/21 11:00:32;;;;;;;9.87;6.23;;;;;;;21.12;100.00;98361.84;5050766;28;20232;-76
2023/06/21 11:02:59;;;;;;;10.17;6.03;;;;;;;21.24;100.00;98349.75;5050918;28;20215;-76
2023/06/21 11:05:27;;;;;;;9.40;5.97;;;;;;;21.33;100.00;98348.75;5050857;28;20204;-76
2023/06/21 11:07:59;;;;;;;8.27;6.83;;;;;;;21.45;100.00;98358.16;5050916;28;20615;-77
2023/06/21 11:10:36;;;;;;;6.90;5.10;;;;;;;21.44;100.00;98363.69;5050521;28;20212;-77
2023/06/21 11:13:03;;;;;;;9.40;5.40;;;;;;;21.55;100.00;98379.50;5051164;28;20212;-76
2023/06/21 11:15:32;;;;;;;7.47;5.10;;;;;;;21.76;100.00;98382.56;5051081;28;20212;-76
2023/06/21 11:18:01;;;;;;;8.37;5.23;;;;;;;21.97;100.00;98381.03;5050779;28;20693;-77
2023/06/21 11:20:31;;;;;;;9.10;4.80;;;;;;;22.14;100.00;98404.19;5050512;28;20204;-76
2023/06/21 11:22:59;;;;;;;7.27;5.00;;;;;;;22.18;100.00;98402.03;5050814;28;20537;-77